Time;durP1;ratioP1;P1;durP2;ratioP2;P2;SDS_P1;SDS_P2;PMS_P1;PMS_P2;Temp;Humidity;BMP_temperature;BMP_pressure;BME280_temperature;BME280_humidity;BME280_pressure;Samples;Min_cycle;Max_cycle;Signal;HPM_P1;HPM_P2
2023/08/11 00:01:07;;;;;;;6.22;3.92;;;;;;;;;;5030089;28;20221;-77
2023/08/11 00:03:35;;;;;;;4.78;3.95;;;;;;;;;;5031508;28;20578;-78
2023/08/11 00:06:07;;;;;;;5.10;3.97;;;;;;;;;;5030461;28;20829;-77
2023/08/11 00:08:39;;;;;;;5.25;4.50;;;;;;;;;;5039979;28;20713;-77
2023/08/11 00:11:08;;;;;;;5.22;4.72;;;;;;;;;;5034298;28;20202;-77
2023/08/11 00:13:35;;;;;;;5.35;4.43;;;;;;;;;;5015127;28;20210;-78
2023/08/11 00:16:04;;;;;;;3.88;3.58;;;;;;;;;;5031817;28;20198;-78
2023/08/11 00:18:34;;;;;;;4.60;4.10;;;;;;;;;;5028016;28;20326;-77
2023/08/11 00:21:03;;;;;;;4.68;4.18;;;;;;;;;;5028733;28;20198;-76
2023/08/11 00:23:30;;;;;;;4.90;4.40;;;;;;;;;;5017793;28;20198;-77
2023/08/11 00:26:00;;;;;;;4.05;3.67;;;;;;;;;;5034085;28;20541;-77
2023/08/11 00:28:27;;;;;;;3.72;3.42;;;;;;;;;;5035240;28;20222;-75
2023/08/11 00:30:55;;;;;;;4.72;3.80;;;;;;;;;;5031860;28;20245;-75
2023/08/11 00:33:22;;;;;;;3.70;3.40;;;;;;;;;;5019167;28;20202;-77
2023/08/11 00:35:53;;;;;;;4.75;3.50;;;;;;;;;;5023204;28;20680;-78
2023/08/11 00:38:23;;;;;;;4.55;3.80;;;;;;;;;;5000458;28;20242;-75
2023/08/11 00:40:51;;;;;;;4.40;4.00;;;;;;;;;;4996609;28;20280;-77
2023/08/11 00:43:19;;;;;;;3.58;3.28;;;;;;;;;;5019601;28;20202;-78
2023/08/11 00:45:49;;;;;;;4.43;3.63;;;;;;;;;;5028584;28;20202;-78
2023/08/11 00:48:16;;;;;;;6.28;4.00;;;;;;;;;;5014038;28;20317;-78
2023/08/11 00:50:46;;;;;;;5.30;4.00;;;;;;;;;;5024216;28;20210;-77
2023/08/11 00:53:17;;;;;;;5.30;3.65;;;;;;;;;;5025426;28;20238;-75
2023/08/11 00:55:47;;;;;;;5.93;3.70;;;;;;;;;;5031324;28;20352;-77
2023/08/11 00:58:14;;;;;;;5.30;4.05;;;;;;;;;;5022029;28;21248;-77
2023/08/11 01:00:46;;;;;;;4.10;3.78;;;;;;;;;;5028902;28;20285;-78
2023/08/11 01:03:14;;;;;;;5.20;4.30;;;;;;;;;;5020280;28;20307;-78
2023/08/11 01:05:48;;;;;;;4.22;3.83;;;;;;;;;;5023050;28;20581;-78
2023/08/11 01:08:28;;;;;;;5.88;4.15;;;;;;;;;;5008027;28;20232;-78
2023/08/11 01:11:07;;;;;;;4.25;3.88;;;;;;;;;;5036851;28;20210;-78
2023/08/11 01:13:39;;;;;;;6.00;4.50;;;;;;;;;;5033313;28;20206;-79
2023/08/11 01:16:08;;;;;;;6.60;5.40;;;;;;;;;;5030274;28;20767;-74
2023/08/11 01:18:35;;;;;;;7.10;5.50;;;;;;;;;;5027837;28;20236;-75
2023/08/11 01:21:06;;;;;;;4.97;4.07;;;;;;;;;;5016098;28;20490;-78
2023/08/11 01:23:34;;;;;;;6.93;5.88;;;;;;;;;;5036884;28;20194;-79
2023/08/11 01:26:01;;;;;;;7.70;5.88;;;;;;;;;;5032561;28;20203;-79
2023/08/11 01:28:29;;;;;;;6.97;5.60;;;;;;;;;;5032952;28;20237;-78
2023/08/11 01:30:56;;;;;;;9.05;5.82;;;;;;;;;;5025721;28;20680;-78
2023/08/11 01:33:23;;;;;;;6.10;5.50;;;;;;;;;;5029635;28;20291;-79
2023/08/11 01:35:50;;;;;;;6.15;5.25;;;;;;;;;;5029274;28;20202;-77
2023/08/11 01:38:18;;;;;;;5.95;4.88;;;;;;;;;;5028487;28;20237;-78
2023/08/11 01:40:47;;;;;;;6.45;4.60;;;;;;;;;;5006941;28;21336;-80
2023/08/11 01:43:15;;;;;;;4.63;4.13;;;;;;;;;;5029599;28;20210;-78
2023/08/11 01:45:48;;;;;;;5.20;4.45;;;;;;;;;;5011678;28;20202;-78
2023/08/11 01:48:17;;;;;;;4.25;3.90;;;;;;;;;;5036592;28;20245;-77
2023/08/11 01:50:44;;;;;;;5.82;4.00;;;;;;;;;;5012403;28;20209;-78
2023/08/11 01:53:12;;;;;;;5.15;3.80;;;;;;;;;;5027152;28;20229;-79
2023/08/11 01:55:40;;;;;;;5.07;3.92;;;;;;;;;;5014110;28;20615;-78
2023/08/11 01:58:08;;;;;;;5.47;4.00;;;;;;;;;;5015850;28;20222;-76
2023/08/11 02:00:36;;;;;;;5.33;4.83;;;;;;;;;;5033635;28;20212;-77
2023/08/11 02:03:03;;;;;;;5.88;5.28;;;;;;;;;;5034888;28;20714;-77
2023/08/11 02:05:31;;;;;;;6.55;5.93;;;;;;;;;;5039388;28;20198;-76
2023/08/11 02:07:59;;;;;;;7.85;6.45;;;;;;;;;;5031967;28;20353;-79
2023/08/11 02:10:27;;;;;;;10.10;7.18;;;;;;;;;;5035086;28;20248;-77
2023/08/11 02:12:54;;;;;;;9.57;7.50;;;;;;;;;;5030973;28;20206;-78
2023/08/11 02:15:22;;;;;;;10.50;8.52;;;;;;;;;;5011182;28;20214;-77
2023/08/11 02:17:49;;;;;;;4.80;4.30;;;;;;;;;;5023091;28;20305;-77
2023/08/11 02:20:22;;;;;;;5.57;4.53;;;;;;;;;;5027283;28;22347;-77
2023/08/11 02:22:52;;;;;;;9.52;5.10;;;;;;;;;;5032663;28;20205;-77
2023/08/11 02:25:20;;;;;;;5.88;4.90;;;;;;;;;;5013295;28;20729;-76
2023/08/11 02:27:47;;;;;;;6.90;6.20;;;;;;;;;;5037498;28;20226;-78
2023/08/11 02:30:14;;;;;;;7.43;5.70;;;;;;;;;;5029773;28;20303;-78
2023/08/11 02:32:45;;;;;;;4.38;3.97;;;;;;;;;;5036980;28;20229;-77
2023/08/11 02:35:13;;;;;;;5.63;4.63;;;;;;;;;;5032354;28;20210;-78
2023/08/11 02:37:41;;;;;;;4.20;3.80;;;;;;;;;;5031959;28;20226;-77
2023/08/11 02:40:09;;;;;;;5.40;3.80;;;;;;;;;;5038488;28;20230;-78
2023/08/11 02:42:43;;;;;;;4.30;3.90;;;;;;;;;;5029092;28;20198;-78
2023/08/11 02:45:11;;;;;;;5.90;4.20;;;;;;;;;;5032120;28;20288;-76
2023/08/11 02:47:40;;;;;;;6.93;4.20;;;;;;;;;;5009333;28;20225;-78
2023/08/11 02:50:08;;;;;;;4.97;4.40;;;;;;;;;;5014199;28;20199;-77
2023/08/11 02:52:36;;;;;;;4.63;4.17;;;;;;;;;;5017946;28;20214;-76
2023/08/11 02:55:06;;;;;;;7.67;4.13;;;;;;;;;;5038256;28;20225;-79
2023/08/11 02:57:33;;;;;;;4.63;4.10;;;;;;;;;;5037164;28;20226;-76
2023/08/11 03:00:03;;;;;;;5.17;3.63;;;;;;;;;;5041476;28;20222;-78
2023/08/11 03:02:34;;;;;;;4.37;3.83;;;;;;;;;;5037965;28;20199;-78
2023/08/11 03:05:07;;;;;;;8.27;3.93;;;;;;;;;;5033319;28;20209;-78
2023/08/11 03:07:35;;;;;;;5.23;4.20;;;;;;;;;;5008782;28;20226;-78
2023/08/11 03:10:03;;;;;;;4.05;3.25;;;;;;;;;;5030206;28;20692;-78
2023/08/11 03:12:30;;;;;;;5.97;4.20;;;;;;;;;;5011901;28;20220;-79
2023/08/11 03:14:58;;;;;;;4.33;3.93;;;;;;;;;;5027089;28;20234;-78
2023/08/11 03:17:25;;;;;;;6.20;4.13;;;;;;;;;;5025819;28;20268;-78
2023/08/11 03:19:55;;;;;;;4.87;4.43;;;;;;;;;;5010510;28;20312;-77
2023/08/11 03:22:23;;;;;;;4.30;3.93;;;;;;;;;;5030613;28;20644;-78
2023/08/11 03:24:51;;;;;;;5.45;4.40;;;;;;;;;;5031482;28;20286;-76
2023/08/11 03:27:18;;;;;;;5.03;4.53;;;;;;;;;;5031584;28;20263;-74
2023/08/11 03:29:46;;;;;;;7.20;4.50;;;;;;;;;;5034654;28;20233;-75
2023/08/11 03:32:14;;;;;;;6.90;4.90;;;;;;;;;;5028675;28;20222;-76
2023/08/11 03:34:42;;;;;;;6.47;5.47;;;;;;;;;;5004147;28;20210;-76
2023/08/11 03:37:09;;;;;;;8.37;7.23;;;;;;;;;;5013078;28;20249;-75
2023/08/11 03:39:36;;;;;;;6.60;5.90;;;;;;;;;;5035371;28;20236;-76
2023/08/11 03:42:04;;;;;;;8.73;6.70;;;;;;;;;;5026770;28;21526;-76
2023/08/11 03:44:32;;;;;;;7.57;6.43;;;;;;;;;;5028948;28;20198;-75
2023/08/11 03:46:59;;;;;;;8.33;6.43;;;;;;;;;;5026636;28;20230;-76
2023/08/11 03:49:27;;;;;;;9.50;7.20;;;;;;;;;;5034173;28;20214;-75
2023/08/11 03:51:55;;;;;;;7.07;6.00;;;;;;;;;;5020157;28;20206;-76
2023/08/11 03:54:22;;;;;;;6.57;5.60;;;;;;;;;;5010759;28;20210;-76
2023/08/11 03:57:06;;;;;;;5.97;5.37;;;;;;;;;;5035744;28;20307;-75
2023/08/11 03:59:34;;;;;;;6.70;5.43;;;;;;;;;;5043817;28;20268;-75
2023/08/11 04:02:01;;;;;;;6.10;4.50;;;;;;;;;;5013609;28;20218;-76
2023/08/11 04:04:29;;;;;;;5.13;4.33;;;;;;;;;;5030925;28;20213;-78
2023/08/11 04:06:57;;;;;;;5.60;4.37;;;;;;;;;;5024124;28;20228;-77
2023/08/11 04:09:25;;;;;;;4.03;3.70;;;;;;;;;;5030603;28;21311;-74
2023/08/11 04:11:53;;;;;;;4.90;4.50;;;;;;;;;;5036067;28;20263;-78
2023/08/11 04:14:20;;;;;;;5.00;4.50;;;;;;;;;;5029131;28;20217;-77
2023/08/11 04:16:47;;;;;;;5.00;4.00;;;;;;;;;;5029975;28;20222;-76
2023/08/11 04:19:15;;;;;;;5.53;3.93;;;;;;;;;;5027749;28;20217;-76
2023/08/11 04:21:42;;;;;;;4.10;3.70;;;;;;;;;;5037190;28;20285;-77
2023/08/11 04:24:09;;;;;;;4.87;4.30;;;;;;;;;;5028423;28;20280;-76
2023/08/11 04:26:36;;;;;;;6.67;3.70;;;;;;;;;;5005988;28;20289;-76
2023/08/11 04:29:04;;;;;;;5.27;3.83;;;;;;;;;;5033186;28;20217;-77
2023/08/11 04:31:31;;;;;;;4.27;3.87;;;;;;;;;;5038442;28;20686;-77
2023/08/11 04:33:59;;;;;;;6.40;3.87;;;;;;;;;;5030818;28;20213;-76
2023/08/11 04:36:27;;;;;;;3.73;3.43;;;;;;;;;;5025039;28;20683;-78
2023/08/11 04:38:55;;;;;;;4.67;3.70;;;;;;;;;;5006677;28;20221;-74
2023/08/11 04:41:22;;;;;;;4.30;3.73;;;;;;;;;;5036648;28;20293;-74
2023/08/11 04:43:50;;;;;;;6.47;3.80;;;;;;;;;;5032506;28;20202;-77
2023/08/11 04:46:17;;;;;;;6.03;3.53;;;;;;;;;;5022166;28;20827;-75
2023/08/11 04:48:45;;;;;;;4.63;3.97;;;;;;;;;;5028585;28;20597;-76
2023/08/11 04:51:13;;;;;;;7.60;3.97;;;;;;;;;;5031981;28;20198;-77
2023/08/11 04:53:42;;;;;;;4.40;3.70;;;;;;;;;;5024969;28;20218;-76
2023/08/11 04:56:10;;;;;;;5.07;3.60;;;;;;;;;;5003304;28;20773;-76
2023/08/11 04:58:39;;;;;;;5.80;3.80;;;;;;;;;;5027757;28;20229;-76
2023/08/11 05:01:07;;;;;;;4.43;4.03;;;;;;;;;;5028439;28;20234;-74
2023/08/11 05:03:34;;;;;;;4.40;3.57;;;;;;;;;;5011595;28;20200;-76
2023/08/11 05:06:02;;;;;;;3.80;3.43;;;;;;;;;;5028865;28;20221;-76
2023/08/11 05:08:33;;;;;;;6.15;3.80;;;;;;;;;;5029711;28;20875;-75
2023/08/11 05:11:03;;;;;;;4.87;4.23;;;;;;;;;;5022823;28;20198;-75
2023/08/11 05:13:31;;;;;;;6.07;3.83;;;;;;;;;;5028783;28;20311;-76
2023/08/11 05:15:58;;;;;;;6.13;4.13;;;;;;;;;;5013578;28;20230;-76
2023/08/11 05:18:26;;;;;;;8.40;4.17;;;;;;;;;;5027882;28;21225;-75
2023/08/11 05:21:09;;;;;;;8.35;5.15;;;;;;;;;;5037064;28;20206;-75
2023/08/11 05:23:37;;;;;;;9.95;6.15;;;;;;;;;;5038226;28;20307;-75
2023/08/11 05:26:04;;;;;;;8.43;5.43;;;;;;;;;;5024592;28;20236;-76
2023/08/11 05:28:31;;;;;;;18.05;5.80;;;;;;;;;;5034264;28;20252;-76
2023/08/11 05:31:00;;;;;;;9.68;5.57;;;;;;;;;;5035502;28;20210;-76
2023/08/11 05:33:28;;;;;;;6.35;4.57;;;;;;;;;;5017210;28;21133;-76
2023/08/11 05:35:55;;;;;;;7.47;4.53;;;;;;;;;;5035718;28;20229;-76
2023/08/11 05:38:23;;;;;;;7.75;4.20;;;;;;;;;;5039682;28;20234;-76
2023/08/11 05:40:52;;;;;;;9.50;4.32;;;;;;;;;;5037609;28;20218;-77
2023/08/11 05:43:20;;;;;;;5.60;3.80;;;;;;;;;;5021766;28;20636;-76
2023/08/11 05:45:48;;;;;;;5.95;3.60;;;;;;;;;;5034736;28;20207;-77
2023/08/11 05:48:16;;;;;;;7.80;3.47;;;;;;;;;;5037660;28;20309;-76
2023/08/11 05:50:45;;;;;;;4.20;3.30;;;;;;;;;;5035954;28;20214;-77
2023/08/11 05:53:12;;;;;;;4.40;3.00;;;;;;;;;;5034378;28;20217;-75
2023/08/11 05:55:40;;;;;;;2.97;2.78;;;;;;;;;;5035226;28;20205;-77
2023/08/11 05:58:07;;;;;;;5.30;3.15;;;;;;;;;;5043074;28;20225;-76
2023/08/11 06:00:35;;;;;;;3.42;3.13;;;;;;;;;;5040677;28;20072;-77
2023/08/11 06:03:02;;;;;;;5.28;2.90;;;;;;;;;;5043338;28;20202;-77
2023/08/11 06:05:29;;;;;;;3.97;3.05;;;;;;;;;;5039928;28;20202;-75
2023/08/11 06:07:58;;;;;;;4.38;2.83;;;;;;;;;;5034801;28;20258;-77
2023/08/11 06:10:33;;;;;;;3.42;3.13;;;;;;;;;;5038033;28;20206;-78
2023/08/11 06:13:00;;;;;;;3.88;3.20;;;;;;;;;;5016812;28;20202;-78
2023/08/11 06:15:30;;;;;;;3.92;3.38;;;;;;;;;;5017747;28;20688;-76
2023/08/11 06:17:57;;;;;;;3.63;3.25;;;;;;;;;;5042131;28;20580;-77
2023/08/11 06:20:25;;;;;;;3.53;3.22;;;;;;;;;;5038473;28;20253;-76
2023/08/11 06:23:07;;;;;;;3.80;3.40;;;;;;;;;;5023136;28;20253;-78
2023/08/11 06:25:36;;;;;;;3.60;3.30;;;;;;;;;;5035762;28;20202;-76
2023/08/11 06:28:05;;;;;;;3.78;3.33;;;;;;;;;;5014335;28;20240;-76
2023/08/11 06:30:32;;;;;;;4.45;3.85;;;;;;;;;;5038380;28;20206;-76
2023/08/11 06:33:00;;;;;;;3.88;3.50;;;;;;;;;;5040238;28;20225;-78
2023/08/11 06:35:27;;;;;;;4.03;3.72;;;;;;;;;;5042508;28;20221;-76
2023/08/11 06:37:54;;;;;;;4.35;3.78;;;;;;;;;;5020371;28;20651;-76
2023/08/11 06:40:22;;;;;;;3.95;3.50;;;;;;;;;;5040459;28;20226;-77
2023/08/11 06:42:49;;;;;;;4.65;3.50;;;;;;;;;;5019547;28;20199;-77
2023/08/11 06:45:17;;;;;;;4.25;3.85;;;;;;;;;;5039841;28;20202;-77
2023/08/11 06:47:44;;;;;;;4.90;3.50;;;;;;;;;;5038378;28;20227;-77
2023/08/11 06:50:12;;;;;;;3.85;3.55;;;;;;;;;;5036339;28;20210;-76
2023/08/11 06:52:40;;;;;;;3.70;3.25;;;;;;;;;;5039503;28;20758;-75
2023/08/11 06:55:08;;;;;;;3.65;3.28;;;;;;;;;;5036901;28;20221;-75
2023/08/11 06:57:36;;;;;;;3.88;3.47;;;;;;;;;;5039446;28;20226;-75
2023/08/11 07:00:07;;;;;;;3.50;3.20;;;;;;;;;;5037937;28;20698;-76
2023/08/11 07:02:35;;;;;;;3.78;3.47;;;;;;;;;;5039906;28;20195;-76
2023/08/11 07:05:03;;;;;;;3.50;3.20;;;;;;;;;;5035042;28;20607;-77
2023/08/11 07:07:30;;;;;;;3.58;3.28;;;;;;;;;;5036873;28;20226;-77
2023/08/11 07:09:58;;;;;;;3.63;3.33;;;;;;;;;;5041506;28;20202;-77
2023/08/11 07:12:30;;;;;;;3.67;3.38;;;;;;;;;;5035440;28;20257;-77
2023/08/11 07:14:57;;;;;;;3.85;3.47;;;;;;;;;;5016604;28;20206;-76
2023/08/11 07:17:25;;;;;;;3.60;3.30;;;;;;;;;;5032649;28;20237;-76
2023/08/11 07:19:52;;;;;;;3.95;3.10;;;;;;;;;;5034237;28;20276;-76
2023/08/11 07:22:19;;;;;;;3.60;3.30;;;;;;;;;;5033912;28;20234;-76
2023/08/11 07:24:46;;;;;;;4.50;3.08;;;;;;;;;;5036984;28;20209;-77
2023/08/11 07:27:14;;;;;;;3.75;3.33;;;;;;;;;;5038053;28;20364;-76
2023/08/11 07:29:45;;;;;;;3.78;3.47;;;;;;;;;;5024195;28;20210;-75
2023/08/11 07:32:12;;;;;;;3.50;3.20;;;;;;;;;;5010278;28;20210;-77
2023/08/11 07:34:40;;;;;;;4.35;3.10;;;;;;;;;;5036513;28;20201;-77
2023/08/11 07:37:08;;;;;;;4.57;3.50;;;;;;;;;;5038572;28;20227;-76
2023/08/11 07:39:36;;;;;;;5.03;3.22;;;;;;;;;;5034168;28;20195;-77
2023/08/11 07:42:03;;;;;;;4.00;3.50;;;;;;;;;;5033496;28;20225;-77
2023/08/11 07:44:31;;;;;;;3.53;3.22;;;;;;;;;;5030902;28;20237;-75
2023/08/11 07:46:58;;;;;;;3.70;3.10;;;;;;;;;;5034935;28;20222;-77
2023/08/11 07:49:26;;;;;;;5.22;3.30;;;;;;;;;;5008274;28;20224;-79
2023/08/11 07:51:54;;;;;;;3.45;3.15;;;;;;;;;;5027404;28;21999;-75
2023/08/11 07:54:21;;;;;;;3.53;3.10;;;;;;;;;;5020663;28;20224;-76
2023/08/11 07:56:49;;;;;;;3.50;3.20;;;;;;;;;;5024595;28;20230;-73
2023/08/11 07:59:16;;;;;;;4.85;3.63;;;;;;;;;;5021403;28;20206;-75
2023/08/11 08:01:44;;;;;;;5.03;3.50;;;;;;;;;;5031467;28;20659;-74
2023/08/11 08:04:11;;;;;;;3.38;3.08;;;;;;;;;;5032158;28;20358;-75
2023/08/11 08:06:45;;;;;;;4.82;3.17;;;;;;;;;;5038180;28;20194;-74
2023/08/11 08:09:14;;;;;;;4.05;2.90;;;;;;;;;;5028727;28;20204;-75
2023/08/11 08:11:43;;;;;;;5.75;3.10;;;;;;;;;;5036645;28;20208;-75
2023/08/11 08:14:11;;;;;;;3.85;3.55;;;;;;;;;;5023304;28;20202;-76
2023/08/11 08:16:41;;;;;;;3.60;3.20;;;;;;;;;;5027478;28;20252;-75
2023/08/11 08:19:10;;;;;;;3.92;3.25;;;;;;;;;;5010509;28;20206;-75
2023/08/11 08:21:38;;;;;;;3.55;3.22;;;;;;;;;;5020701;28;20240;-75
2023/08/11 08:24:07;;;;;;;3.13;2.83;;;;;;;;;;5018661;28;20222;-75
2023/08/11 08:26:36;;;;;;;3.30;3.00;;;;;;;;;;5023933;28;20563;-75
2023/08/11 08:29:03;;;;;;;4.10;2.80;;;;;;;;;;5013202;28;20224;-75
2023/08/11 08:31:31;;;;;;;3.47;3.17;;;;;;;;;;5016807;28;20206;-74
2023/08/11 08:33:59;;;;;;;3.13;2.78;;;;;;;;;;5028451;28;20238;-75
2023/08/11 08:36:27;;;;;;;5.18;3.38;;;;;;;;;;5023575;28;20591;-74
2023/08/11 08:38:54;;;;;;;3.53;2.72;;;;;;;;;;5010463;28;20208;-73
2023/08/11 08:41:27;;;;;;;2.95;2.70;;;;;;;;;;5023576;28;20229;-75
2023/08/11 08:43:55;;;;;;;2.95;2.75;;;;;;;;;;5022455;28;20202;-73
2023/08/11 08:46:28;;;;;;;4.85;2.65;;;;;;;;;;5005059;28;20248;-75
2023/08/11 08:49:01;;;;;;;3.20;2.40;;;;;;;;;;5021331;28;20314;-74
2023/08/11 08:51:30;;;;;;;3.58;2.60;;;;;;;;;;5014836;28;20310;-74
2023/08/11 08:53:57;;;;;;;2.45;2.30;;;;;;;;;;5017488;28;20203;-75
2023/08/11 08:56:25;;;;;;;2.22;2.13;;;;;;;;;;5039689;28;20206;-73
2023/08/11 08:58:53;;;;;;;2.90;2.60;;;;;;;;;;5012337;28;20683;-74
2023/08/11 09:01:21;;;;;;;3.30;2.45;;;;;;;;;;5031474;28;20698;-75
2023/08/11 09:03:49;;;;;;;2.53;2.33;;;;;;;;;;5027679;28;20202;-76
2023/08/11 09:06:16;;;;;;;3.03;2.53;;;;;;;;;;5027148;28;20197;-74
2023/08/11 09:08:45;;;;;;;2.83;2.42;;;;;;;;;;5031353;28;20218;-75
2023/08/11 09:11:12;;;;;;;2.55;2.35;;;;;;;;;;5009106;28;20206;-75
2023/08/11 09:13:40;;;;;;;2.47;2.28;;;;;;;;;;5010943;28;20209;-75
2023/08/11 09:16:07;;;;;;;2.95;2.45;;;;;;;;;;5030957;28;20293;-75
2023/08/11 09:18:35;;;;;;;2.90;2.60;;;;;;;;;;5018021;28;20248;-74
2023/08/11 09:21:02;;;;;;;3.30;2.50;;;;;;;;;;5024161;28;20222;-74
2023/08/11 09:23:29;;;;;;;2.50;2.30;;;;;;;;;;5026451;28;20542;-75
2023/08/11 09:25:57;;;;;;;3.75;2.65;;;;;;;;;;5024427;28;20257;-75
2023/08/11 09:28:24;;;;;;;3.60;2.53;;;;;;;;;;5027455;28;20218;-75
2023/08/11 09:30:52;;;;;;;2.60;2.40;;;;;;;;;;5023910;28;20266;-74
2023/08/11 09:33:21;;;;;;;2.72;2.30;;;;;;;;;;5024421;28;20205;-73
2023/08/11 09:35:49;;;;;;;3.65;2.20;;;;;;;;;;5004610;28;20224;-72
2023/08/11 09:38:16;;;;;;;2.50;2.30;;;;;;;;;;5027348;28;20248;-73
2023/08/11 09:40:43;;;;;;;2.20;2.10;;;;;;;;;;5029568;28;20214;-74
2023/08/11 09:43:11;;;;;;;2.83;2.13;;;;;;;;;;5031937;28;20280;-75
2023/08/11 09:45:38;;;;;;;2.58;2.38;;;;;;;;;;5036243;28;20198;-74
2023/08/11 09:48:06;;;;;;;2.53;2.33;;;;;;;;;;5033762;28;20669;-74
2023/08/11 09:50:35;;;;;;;2.40;2.20;;;;;;;;;;5034902;28;20203;-75
2023/08/11 09:53:04;;;;;;;2.83;2.63;;;;;;;;;;5034018;28;20224;-73
2023/08/11 09:55:32;;;;;;;2.67;2.50;;;;;;;;;;5031345;28;20214;-75
2023/08/11 09:58:02;;;;;;;2.50;2.30;;;;;;;;;;5031725;28;20237;-73
2023/08/11 10:00:30;;;;;;;2.63;2.38;;;;;;;;;;5036451;28;20968;-73
2023/08/11 10:03:11;;;;;;;3.42;2.40;;;;;;;;;;5039048;28;20194;-75
2023/08/11 10:05:43;;;;;;;2.63;2.42;;;;;;;;;;5039465;28;20209;-73
2023/08/11 10:08:18;;;;;;;3.25;2.00;;;;;;;;;;5040753;28;20226;-75
2023/08/11 10:10:46;;;;;;;2.50;2.30;;;;;;;;;;5044177;28;20867;-73
2023/08/11 10:13:17;;;;;;;2.80;2.53;;;;;;;;;;5042346;28;20211;-73
2023/08/11 10:15:48;;;;;;;2.72;2.35;;;;;;;;;;5046565;28;20211;-74
2023/08/11 10:18:20;;;;;;;2.38;2.28;;;;;;;;;;5040715;28;20234;-74
2023/08/11 10:20:50;;;;;;;2.63;2.42;;;;;;;;;;5040376;28;20310;-74
2023/08/11 10:23:20;;;;;;;2.67;2.05;;;;;;;;;;5046354;28;20244;-74
2023/08/11 10:25:47;;;;;;;2.75;2.42;;;;;;;;;;5046266;28;20563;-74
2023/08/11 10:28:16;;;;;;;2.60;2.40;;;;;;;;;;5048247;28;20707;-74
2023/08/11 10:30:43;;;;;;;2.65;2.45;;;;;;;;;;5041996;28;20240;-76
2023/08/11 10:33:11;;;;;;;2.42;2.20;;;;;;;;;;5045612;28;20211;-75
2023/08/11 10:35:47;;;;;;;2.58;2.38;;;;;;;;;;5027412;28;20664;-73
2023/08/11 10:38:33;;;;;;;2.60;2.40;;;;;;;;;;5048628;28;20233;-75
2023/08/11 10:41:05;;;;;;;2.65;2.45;;;;;;;;;;5041547;28;20588;-74
2023/08/11 10:43:43;;;;;;;3.72;2.65;;;;;;;;;;5039667;28;20215;-75
2023/08/11 10:46:23;;;;;;;2.53;2.33;;;;;;;;;;5039885;28;20333;-75
2023/08/11 10:48:51;;;;;;;2.55;2.38;;;;;;;;;;5046547;28;20217;-76
2023/08/11 10:51:29;;;;;;;2.65;2.45;;;;;;;;;;5045497;28;20725;-76
2023/08/11 10:54:09;;;;;;;3.00;2.70;;;;;;;;;;5044214;28;20209;-73
2023/08/11 10:56:43;;;;;;;2.65;2.45;;;;;;;;;;5019804;28;20206;-74
2023/08/11 10:59:17;;;;;;;2.50;2.30;;;;;;;;;;5035585;28;20727;-75
2023/08/11 11:01:46;;;;;;;2.35;2.15;;;;;;;;;;5035441;28;20260;-77
2023/08/11 11:04:14;;;;;;;2.50;2.30;;;;;;;;;;5035157;28;20482;-74
2023/08/11 11:06:42;;;;;;;3.03;2.47;;;;;;;;;;5042179;28;20228;-75
2023/08/11 11:09:09;;;;;;;2.58;2.40;;;;;;;;;;5016048;28;20196;-79
2023/08/11 11:11:37;;;;;;;3.28;2.58;;;;;;;;;;5034360;28;20222;-76
2023/08/11 11:14:05;;;;;;;2.20;2.10;;;;;;;;;;5020593;28;20209;-76
2023/08/11 11:16:33;;;;;;;3.20;2.58;;;;;;;;;;5034586;28;20206;-76
2023/08/11 11:19:02;;;;;;;2.53;2.33;;;;;;;;;;5039704;28;20206;-75
2023/08/11 11:21:30;;;;;;;2.80;2.60;;;;;;;;;;5035878;28;20707;-75
2023/08/11 11:23:58;;;;;;;2.88;2.67;;;;;;;;;;5036480;28;20625;-75
2023/08/11 11:26:25;;;;;;;2.40;2.20;;;;;;;;;;5034120;28;20731;-76
2023/08/11 11:28:54;;;;;;;2.63;2.45;;;;;;;;;;5030527;28;20202;-75
2023/08/11 11:31:23;;;;;;;2.72;2.53;;;;;;;;;;5036887;28;20312;-76
2023/08/11 11:33:51;;;;;;;3.45;2.45;;;;;;;;;;5035381;28;20214;-75
2023/08/11 11:36:19;;;;;;;2.70;2.50;;;;;;;;;;5014258;28;20238;-74
2023/08/11 11:38:47;;;;;;;3.33;2.58;;;;;;;;;;5018731;28;20299;-75
2023/08/11 11:41:15;;;;;;;2.47;2.30;;;;;;;;;;5037444;28;20237;-76
2023/08/11 11:43:43;;;;;;;2.65;2.45;;;;;;;;;;5019359;28;20546;-75
2023/08/11 11:46:14;;;;;;;2.67;2.45;;;;;;;;;;5038897;28;20210;-74
2023/08/11 11:48:43;;;;;;;2.97;2.20;;;;;;;;;;5034864;28;20218;-76
2023/08/11 11:51:15;;;;;;;2.83;2.47;;;;;;;;;;5014130;28;20222;-76
2023/08/11 11:53:42;;;;;;;3.13;2.60;;;;;;;;;;5034299;28;20202;-76
2023/08/11 11:56:17;;;;;;;2.72;2.17;;;;;;;;;;5017271;28;20098;-75
2023/08/11 11:58:47;;;;;;;2.60;2.40;;;;;;;;;;5032379;28;20233;-75
2023/08/11 12:01:18;;;;;;;2.83;2.60;;;;;;;;;;5032752;28;20226;-74
2023/08/11 12:03:50;;;;;;;2.85;2.65;;;;;;;;;;5037924;28;20285;-76
2023/08/11 12:06:18;;;;;;;2.60;2.40;;;;;;;;;;5033440;28;20202;-76
2023/08/11 12:08:46;;;;;;;2.67;2.47;;;;;;;;;;5017745;28;20222;-78
2023/08/11 12:11:17;;;;;;;3.55;2.60;;;;;;;;;;5036194;28;20209;-75
2023/08/11 12:13:44;;;;;;;2.60;2.20;;;;;;;;;;5033049;28;20202;-74
2023/08/11 12:16:14;;;;;;;2.88;2.58;;;;;;;;;;5036783;28;22530;-75
2023/08/11 12:18:41;;;;;;;2.45;2.13;;;;;;;;;;5038394;28;20234;-75
2023/08/11 12:21:09;;;;;;;2.88;2.67;;;;;;;;;;5031477;28;20218;-74
2023/08/11 12:23:36;;;;;;;2.50;2.30;;;;;;;;;;5013530;28;20195;-75
2023/08/11 12:26:04;;;;;;;2.80;2.60;;;;;;;;;;5033216;28;20210;-75
2023/08/11 12:28:32;;;;;;;3.75;2.42;;;;;;;;;;5035373;28;20223;-73
2023/08/11 12:30:59;;;;;;;3.00;2.80;;;;;;;;;;5032144;28;20230;-76
2023/08/11 12:33:27;;;;;;;2.80;2.60;;;;;;;;;;5021808;28;20221;-74
2023/08/11 12:35:55;;;;;;;3.05;2.80;;;;;;;;;;5029811;28;20465;-75
2023/08/11 12:38:22;;;;;;;3.40;2.25;;;;;;;;;;5026982;28;20495;-74
2023/08/11 12:40:49;;;;;;;2.90;2.70;;;;;;;;;;5028012;28;20560;-74
2023/08/11 12:43:17;;;;;;;2.72;2.53;;;;;;;;;;5020378;28;20231;-75
2023/08/11 12:45:44;;;;;;;2.65;2.45;;;;;;;;;;5019964;28;20293;-74
2023/08/11 12:48:13;;;;;;;4.32;2.55;;;;;;;;;;5023012;28;20230;-78
2023/08/11 12:50:40;;;;;;;2.50;2.30;;;;;;;;;;5032614;28;20209;-74
2023/08/11 12:53:08;;;;;;;2.40;2.20;;;;;;;;;;5010885;28;20599;-76
2023/08/11 12:55:37;;;;;;;2.92;2.72;;;;;;;;;;5018992;28;20352;-75
2023/08/11 12:58:05;;;;;;;2.67;2.42;;;;;;;;;;5020075;28;20257;-73
2023/08/11 13:00:34;;;;;;;2.53;2.33;;;;;;;;;;5014976;28;20206;-73
2023/08/11 13:03:02;;;;;;;3.15;2.65;;;;;;;;;;5022228;28;20213;-75
2023/08/11 13:05:30;;;;;;;2.80;2.60;;;;;;;;;;5019995;28;20666;-75
2023/08/11 13:07:57;;;;;;;2.45;2.25;;;;;;;;;;5025430;28;20218;-75
2023/08/11 13:10:24;;;;;;;2.42;2.22;;;;;;;;;;5015350;28;20212;-78
2023/08/11 13:12:51;;;;;;;2.78;2.58;;;;;;;;;;5017122;28;20216;-76
2023/08/11 13:15:20;;;;;;;2.88;2.65;;;;;;;;;;5021172;28;20603;-77
2023/08/11 13:17:47;;;;;;;2.40;2.20;;;;;;;;;;5026387;28;20236;-75
2023/08/11 13:20:15;;;;;;;2.70;2.50;;;;;;;;;;5008262;28;20205;-76
2023/08/11 13:22:43;;;;;;;2.55;2.35;;;;;;;;;;5026042;28;20222;-74
2023/08/11 13:25:11;;;;;;;2.55;2.42;;;;;;;;;;5026011;28;20292;-74
2023/08/11 13:27:38;;;;;;;2.70;2.50;;;;;;;;;;5023250;28;20214;-73
2023/08/11 13:30:07;;;;;;;2.80;2.60;;;;;;;;;;5015641;28;20199;-74
2023/08/11 13:32:35;;;;;;;3.08;2.80;;;;;;;;;;5009887;28;20631;-75
2023/08/11 13:35:04;;;;;;;3.03;2.72;;;;;;;;;;5006692;28;20236;-75
2023/08/11 13:37:32;;;;;;;2.50;2.30;;;;;;;;;;5028059;28;20233;-76
2023/08/11 13:40:00;;;;;;;4.07;2.28;;;;;;;;;;5026395;28;20264;-77
2023/08/11 13:42:28;;;;;;;3.85;2.95;;;;;;;;;;5006004;28;20223;-74
2023/08/11 13:44:58;;;;;;;3.88;3.20;;;;;;;;;;5035598;28;20573;-74
2023/08/11 13:47:27;;;;;;;2.70;2.47;;;;;;;;;;5028676;28;20549;-75
2023/08/11 13:49:56;;;;;;;2.78;2.58;;;;;;;;;;5026856;28;20301;-75
2023/08/11 13:52:23;;;;;;;3.20;2.38;;;;;;;;;;5024626;28;20294;-75
2023/08/11 13:55:01;;;;;;;2.60;2.40;;;;;;;;;;5032243;28;20241;-75
2023/08/11 13:57:29;;;;;;;2.20;2.10;;;;;;;;;;5026857;28;20314;-74
2023/08/11 13:59:58;;;;;;;2.60;2.40;;;;;;;;;;5027920;28;20730;-76
2023/08/11 14:02:26;;;;;;;4.00;2.47;;;;;;;;;;5025588;28;20225;-76
2023/08/11 14:04:54;;;;;;;2.70;2.35;;;;;;;;;;5025095;28;20209;-76
2023/08/11 14:07:22;;;;;;;2.50;2.35;;;;;;;;;;5026140;28;20226;-74
2023/08/11 14:10:02;;;;;;;2.60;2.40;;;;;;;;;;5021192;28;20206;-74
2023/08/11 14:12:29;;;;;;;2.75;2.03;;;;;;;;;;5021868;28;20324;-76
2023/08/11 14:14:57;;;;;;;2.80;2.45;;;;;;;;;;5026714;28;20202;-74
2023/08/11 14:17:24;;;;;;;2.92;2.13;;;;;;;;;;5003648;28;20222;-74
2023/08/11 14:19:52;;;;;;;2.30;2.20;;;;;;;;;;5016948;28;20348;-73
2023/08/11 14:22:20;;;;;;;2.60;2.40;;;;;;;;;;5014052;28;20233;-74
2023/08/11 14:24:47;;;;;;;2.28;2.08;;;;;;;;;;5016835;28;20198;-75
2023/08/11 14:27:15;;;;;;;2.50;2.30;;;;;;;;;;5020483;28;20642;-75
2023/08/11 14:29:43;;;;;;;2.20;2.10;;;;;;;;;;5027732;28;20226;-76
2023/08/11 14:32:11;;;;;;;2.30;2.10;;;;;;;;;;5021029;28;20367;-75
2023/08/11 14:34:52;;;;;;;1.80;1.70;;;;;;;;;;5021154;28;20205;-75
2023/08/11 14:37:23;;;;;;;2.05;1.95;;;;;;;;;;5021298;28;20349;-74
2023/08/11 14:39:54;;;;;;;2.50;2.30;;;;;;;;;;5015408;28;20202;-74
2023/08/11 14:42:24;;;;;;;3.47;2.60;;;;;;;;;;5003435;28;20254;-76
2023/08/11 14:44:52;;;;;;;2.38;2.17;;;;;;;;;;5014249;28;20385;-75
2023/08/11 14:47:19;;;;;;;2.05;1.95;;;;;;;;;;5027822;28;20222;-76
2023/08/11 14:49:46;;;;;;;2.53;2.33;;;;;;;;;;5021179;28;20225;-75
2023/08/11 14:52:14;;;;;;;2.58;2.10;;;;;;;;;;5014061;28;20652;-76